Time;durP1;ratioP1;P1;durP2;ratioP2;P2;SDS_P1;SDS_P2;PMS_P1;PMS_P2;Temp;Humidity;BMP_temperature;BMP_pressure;BME280_temperature;BME280_humidity;BME280_pressure;Samples;Min_cycle;Max_cycle;Signal;HPM_P1;HPM_P2
2021/09/07 00:01:38;;;;;;;13.48;9.63;;;17.50;99.90;;;;;;5036254;28;20021;-85
2021/09/07 00:04:04;;;;;;;20.85;12.18;;;17.60;99.90;;;;;;5036160;28;20531;-85
2021/09/07 00:06:30;;;;;;;16.92;10.98;;;17.60;99.90;;;;;;5036183;28;20021;-85
2021/09/07 00:08:55;;;;;;;18.35;11.75;;;17.50;99.90;;;;;;5035052;28;20025;-85
2021/09/07 00:11:21;;;;;;;20.40;11.57;;;17.50;99.90;;;;;;5053756;28;20029;-85
2021/09/07 00:13:47;;;;;;;22.15;12.00;;;17.50;99.90;;;;;;5036009;28;20067;-84
2021/09/07 00:16:13;;;;;;;18.70;12.73;;;17.50;99.90;;;;;;5035874;28;20465;-84
2021/09/07 00:18:39;;;;;;;22.13;12.73;;;17.50;99.90;;;;;;5053598;28;20035;-85
2021/09/07 00:21:04;;;;;;;19.13;11.60;;;17.50;99.90;;;;;;5035299;28;20029;-85
2021/09/07 00:23:30;;;;;;;16.40;11.45;;;17.50;99.90;;;;;;5035744;28;20037;-84
2021/09/07 00:25:55;;;;;;;18.45;11.55;;;17.40;99.90;;;;;;5036053;28;20061;-85
2021/09/07 00:28:21;;;;;;;18.52;12.07;;;17.40;99.90;;;;;;5035755;28;20039;-84
2021/09/07 00:30:47;;;;;;;18.63;11.90;;;17.40;99.90;;;;;;5034964;28;20036;-84
2021/09/07 00:33:12;;;;;;;24.05;13.27;;;17.40;99.90;;;;;;5053074;28;20108;-85
2021/09/07 00:35:38;;;;;;;19.50;12.45;;;17.40;99.90;;;;;;5035425;28;20473;-84
2021/09/07 00:38:04;;;;;;;19.67;11.75;;;17.40;99.90;;;;;;5035566;28;20465;-84
2021/09/07 00:40:30;;;;;;;17.95;11.57;;;17.30;99.90;;;;;;5034617;28;20033;-84
2021/09/07 00:42:55;;;;;;;16.63;11.23;;;17.30;99.90;;;;;;5053157;28;20103;-84
2021/09/07 00:45:21;;;;;;;17.52;10.88;;;17.30;99.90;;;;;;5053295;28;20103;-84
2021/09/07 00:47:47;;;;;;;18.00;11.50;;;17.20;99.90;;;;;;5035384;28;20040;-84
2021/09/07 00:50:13;;;;;;;16.88;10.70;;;17.10;99.90;;;;;;5034710;28;20401;-84
2021/09/07 00:52:41;;;;;;;16.27;10.57;;;17.20;99.90;;;;;;5035160;28;20401;-84
2021/09/07 00:55:08;;;;;;;17.83;11.35;;;17.20;99.90;;;;;;5052997;28;20029;-85
2021/09/07 00:57:34;;;;;;;18.00;10.88;;;17.20;99.90;;;;;;5034989;28;20021;-84
2021/09/07 01:00:06;;;;;;;16.98;11.05;;;17.10;99.90;;;;;;5034335;28;20115;-85
2021/09/07 01:02:32;;;;;;;18.52;11.85;;;17.10;99.90;;;;;;5035181;28;20017;-84
2021/09/07 01:04:58;;;;;;;16.83;11.30;;;17.10;99.90;;;;;;5035154;28;20025;-84
2021/09/07 01:07:24;;;;;;;16.83;11.05;;;17.10;99.90;;;;;;5034932;28;20612;-84
2021/09/07 01:09:49;;;;;;;16.00;11.63;;;17.00;99.90;;;;;;5034215;28;20474;-84
2021/09/07 01:12:15;;;;;;;17.15;11.15;;;17.00;99.90;;;;;;5034814;28;20029;-84
2021/09/07 01:14:42;;;;;;;14.93;10.35;;;17.00;99.90;;;;;;5052705;28;20033;-84
2021/09/07 01:17:16;;;;;;;15.43;10.57;;;16.90;99.90;;;;;;5034808;28;20492;-85
2021/09/07 01:19:43;;;;;;;20.00;11.55;;;16.90;99.90;;;;;;5033930;28;20025;-85
2021/09/07 01:22:09;;;;;;;16.58;10.45;;;16.90;99.90;;;;;;5051729;28;20100;-85
2021/09/07 01:24:37;;;;;;;16.85;11.13;;;16.90;99.90;;;;;;5052659;28;20021;-85
2021/09/07 01:27:05;;;;;;;19.40;12.20;;;16.90;99.90;;;;;;5034659;28;20362;-85
2021/09/07 01:29:33;;;;;;;20.10;12.18;;;16.80;99.90;;;;;;5034239;28;20481;-84
2021/09/07 01:31:59;;;;;;;18.77;11.43;;;16.90;99.90;;;;;;5034592;28;20025;-84
2021/09/07 01:34:25;;;;;;;17.77;12.10;;;16.80;99.90;;;;;;5034487;28;20392;-84
2021/09/07 01:36:51;;;;;;;18.25;11.93;;;16.80;99.90;;;;;;5034489;28;20067;-84
2021/09/07 01:39:18;;;;;;;19.48;13.15;;;16.80;99.90;;;;;;5033763;28;20028;-84
2021/09/07 01:41:44;;;;;;;17.52;12.05;;;16.80;99.90;;;;;;5034242;28;20492;-85
2021/09/07 01:44:10;;;;;;;20.02;12.07;;;16.80;99.90;;;;;;5034367;28;20029;-85
2021/09/07 01:46:36;;;;;;;22.63;12.23;;;16.70;99.90;;;;;;5052262;28;20025;-85
2021/09/07 01:49:03;;;;;;;19.42;11.80;;;16.80;99.90;;;;;;5033968;28;20542;-84
2021/09/07 01:51:28;;;;;;;20.45;12.55;;;16.70;99.90;;;;;;5052077;28;20025;-85
2021/09/07 01:53:54;;;;;;;19.17;12.10;;;16.70;99.90;;;;;;5034158;28;20477;-84
2021/09/07 01:56:19;;;;;;;19.92;12.10;;;16.70;99.90;;;;;;5051879;28;20032;-85
2021/09/07 01:58:45;;;;;;;17.85;12.65;;;16.70;99.90;;;;;;5034049;28;20491;-85
2021/09/07 02:01:11;;;;;;;21.58;12.45;;;16.70;99.90;;;;;;5033465;28;20124;-84
2021/09/07 02:03:37;;;;;;;17.77;11.65;;;16.60;99.90;;;;;;5034163;28;20108;-85
2021/09/07 02:06:02;;;;;;;19.95;11.88;;;16.60;99.90;;;;;;5034265;28;20290;-84
2021/09/07 02:08:28;;;;;;;17.65;11.30;;;16.50;99.90;;;;;;5034017;28;20035;-84
2021/09/07 02:10:53;;;;;;;20.95;12.55;;;16.50;99.90;;;;;;5033361;28;20040;-85
2021/09/07 02:13:19;;;;;;;17.80;11.48;;;16.50;99.90;;;;;;5051842;28;20040;-84
2021/09/07 02:15:45;;;;;;;17.58;11.45;;;16.50;99.90;;;;;;5034029;28;20029;-84
2021/09/07 02:18:10;;;;;;;18.42;11.70;;;16.40;99.90;;;;;;5034067;28;20047;-85
2021/09/07 02:20:36;;;;;;;18.17;11.20;;;16.50;99.90;;;;;;5032832;28;20088;-85
2021/09/07 02:23:06;;;;;;;17.90;11.05;;;16.40;99.90;;;;;;5032537;28;20025;-85
2021/09/07 02:25:32;;;;;;;19.95;13.00;;;16.40;99.90;;;;;;5051383;28;20044;-85
2021/09/07 02:27:59;;;;;;;16.08;11.27;;;16.40;99.90;;;;;;5033888;28;20033;-85
2021/09/07 02:30:25;;;;;;;19.92;11.95;;;16.40;99.90;;;;;;5033142;28;20040;-85
2021/09/07 02:32:50;;;;;;;16.90;11.38;;;16.40;99.90;;;;;;5035840;28;20179;-84
2021/09/07 02:35:16;;;;;;;19.05;11.55;;;16.40;99.90;;;;;;5037978;28;20119;-84
2021/09/07 02:37:42;;;;;;;18.98;11.70;;;16.40;99.90;;;;;;5037936;28;20032;-84
2021/09/07 02:40:08;;;;;;;19.38;12.27;;;16.40;99.90;;;;;;5036993;28;20036;-84
2021/09/07 02:42:34;;;;;;;19.58;12.13;;;16.30;99.90;;;;;;5037619;28;20033;-84
2021/09/07 02:44:59;;;;;;;16.60;11.23;;;16.40;99.90;;;;;;5037777;28;20319;-85
2021/09/07 02:47:25;;;;;;;18.65;12.55;;;16.40;99.90;;;;;;5037570;28;20025;-85
2021/09/07 02:49:50;;;;;;;20.45;12.45;;;16.40;99.90;;;;;;5036938;28;20422;-84
2021/09/07 02:52:16;;;;;;;21.25;12.50;;;16.40;99.90;;;;;;5037542;28;20098;-85
2021/09/07 02:54:42;;;;;;;18.30;11.45;;;16.40;99.90;;;;;;5037416;28;20098;-85
2021/09/07 02:57:07;;;;;;;17.23;11.40;;;16.30;99.90;;;;;;5037501;28;20073;-84
2021/09/07 02:59:34;;;;;;;17.95;11.80;;;16.30;99.90;;;;;;5036915;28;20060;-84
2021/09/07 03:01:59;;;;;;;19.23;11.68;;;16.40;99.90;;;;;;5037435;28;20025;-85
2021/09/07 03:04:25;;;;;;;18.02;11.48;;;16.30;99.90;;;;;;5055208;28;20078;-84
2021/09/07 03:06:51;;;;;;;18.13;11.52;;;16.30;99.90;;;;;;5055009;28;20029;-84
2021/09/07 03:09:16;;;;;;;18.52;11.48;;;16.30;99.90;;;;;;5036524;28;20033;-84
2021/09/07 03:11:42;;;;;;;16.00;11.10;;;16.30;99.90;;;;;;5037140;28;20029;-84
2021/09/07 03:14:08;;;;;;;17.33;11.10;;;16.30;99.90;;;;;;5055799;28;20048;-84
2021/09/07 03:16:33;;;;;;;15.43;10.73;;;16.30;99.90;;;;;;5038140;28;20033;-84
2021/09/07 03:19:00;;;;;;;18.58;11.55;;;16.30;99.90;;;;;;5037480;28;20127;-84
2021/09/07 03:21:26;;;;;;;18.67;11.45;;;16.30;99.90;;;;;;5055761;28;20030;-85
2021/09/07 03:23:52;;;;;;;16.67;11.63;;;16.30;99.90;;;;;;5038300;28;20029;-85
2021/09/07 03:26:17;;;;;;;18.02;11.68;;;16.40;99.90;;;;;;5037213;28;20116;-85
2021/09/07 03:28:43;;;;;;;17.88;11.15;;;16.40;99.90;;;;;;5036751;28;20087;-85
2021/09/07 03:31:08;;;;;;;19.02;11.18;;;16.40;99.90;;;;;;5036308;28;20036;-84
2021/09/07 03:33:34;;;;;;;18.73;11.45;;;16.40;99.90;;;;;;5054845;28;20098;-84
2021/09/07 03:36:00;;;;;;;19.40;12.27;;;16.40;99.90;;;;;;5036888;28;20033;-85
2021/09/07 03:38:25;;;;;;;19.92;12.52;;;16.40;99.90;;;;;;5036702;28;20033;-85
2021/09/07 03:40:51;;;;;;;18.35;11.85;;;16.40;99.90;;;;;;5036170;28;20087;-84
2021/09/07 03:43:17;;;;;;;18.00;11.75;;;16.50;99.90;;;;;;5036385;28;20025;-85
2021/09/07 03:45:42;;;;;;;17.52;11.45;;;16.50;99.90;;;;;;5036260;28;20036;-84
2021/09/07 03:48:08;;;;;;;19.13;11.65;;;16.50;99.90;;;;;;5036510;28;20025;-85
2021/09/07 03:50:34;;;;;;;19.55;11.75;;;16.50;99.90;;;;;;5053665;28;20036;-84
2021/09/07 03:52:59;;;;;;;20.95;12.20;;;16.50;99.90;;;;;;5036480;28;20028;-85
2021/09/07 03:55:27;;;;;;;21.23;12.32;;;16.50;99.90;;;;;;5036512;28;20044;-84
2021/09/07 03:57:53;;;;;;;16.53;11.27;;;16.50;99.90;;;;;;5054127;28;20107;-85
2021/09/07 04:00:19;;;;;;;20.08;12.20;;;16.50;99.90;;;;;;5035669;28;20462;-84
2021/09/07 04:02:44;;;;;;;21.20;13.40;;;16.60;99.90;;;;;;5036274;28;20029;-84
2021/09/07 04:05:10;;;;;;;19.75;12.82;;;16.60;99.90;;;;;;5036153;28;20489;-84
2021/09/07 04:07:37;;;;;;;22.17;14.25;;;16.60;99.90;;;;;;5036120;28;20021;-85
2021/09/07 04:10:04;;;;;;;22.48;12.80;;;16.60;99.90;;;;;;5053341;28;20116;-85
2021/09/07 04:12:29;;;;;;;20.80;13.15;;;16.60;99.90;;;;;;5053889;28;20104;-85
2021/09/07 04:14:55;;;;;;;24.83;13.25;;;16.60;99.90;;;;;;5035991;28;20191;-84
2021/09/07 04:17:21;;;;;;;20.23;12.65;;;16.60;99.90;;;;;;5036000;28;20033;-85
2021/09/07 04:19:46;;;;;;;20.20;13.27;;;16.70;99.90;;;;;;5053641;28;20389;-84
2021/09/07 04:22:12;;;;;;;19.63;12.82;;;16.70;99.90;;;;;;5035790;28;20385;-84
2021/09/07 04:24:38;;;;;;;21.40;13.23;;;16.70;99.90;;;;;;5053780;28;20029;-84
2021/09/07 04:27:03;;;;;;;21.40;13.55;;;16.70;99.90;;;;;;5035703;28;20032;-84
2021/09/07 04:29:29;;;;;;;23.27;13.00;;;16.70;99.90;;;;;;5035075;28;20025;-84
2021/09/07 04:31:55;;;;;;;22.92;13.40;;;16.70;99.90;;;;;;5035661;28;20032;-84
2021/09/07 04:34:20;;;;;;;22.38;13.50;;;16.70;99.90;;;;;;5035771;28;20029;-85
2021/09/07 04:36:46;;;;;;;20.70;13.30;;;16.70;99.90;;;;;;5053663;28;20036;-84
2021/09/07 04:39:12;;;;;;;19.90;12.70;;;16.70;99.90;;;;;;5034735;28;20064;-85
2021/09/07 04:41:37;;;;;;;21.90;13.45;;;16.70;99.90;;;;;;5052076;28;20025;-85
2021/09/07 04:44:03;;;;;;;19.83;12.75;;;16.70;99.90;;;;;;5035429;28;20391;-84
2021/09/07 04:46:29;;;;;;;21.02;12.82;;;16.70;99.90;;;;;;5035519;28;20470;-85
2021/09/07 04:48:55;;;;;;;20.52;13.45;;;16.70;99.90;;;;;;5034727;28;20078;-85
2021/09/07 04:51:24;;;;;;;22.60;13.52;;;16.70;99.90;;;;;;5051657;28;20025;-85
2021/09/07 04:53:51;;;;;;;20.98;12.93;;;16.70;99.90;;;;;;5035264;28;20111;-85
2021/09/07 04:56:20;;;;;;;21.63;14.73;;;16.80;99.90;;;;;;5033988;28;20029;-84
2021/09/07 04:58:46;;;;;;;24.40;14.05;;;16.80;99.90;;;;;;5052853;28;20104;-84
2021/09/07 05:01:11;;;;;;;22.75;13.82;;;16.80;99.90;;;;;;5034648;28;20120;-84
2021/09/07 05:03:37;;;;;;;22.92;13.60;;;16.80;99.90;;;;;;5035084;28;20021;-85
2021/09/07 05:06:03;;;;;;;25.77;13.32;;;16.80;99.90;;;;;;5035110;28;20401;-84
2021/09/07 05:08:29;;;;;;;23.50;13.50;;;16.80;99.90;;;;;;5034985;28;20027;-84
2021/09/07 05:10:55;;;;;;;21.02;13.23;;;16.80;99.90;;;;;;5052180;28;20025;-85
2021/09/07 05:13:21;;;;;;;21.10;13.57;;;16.80;99.90;;;;;;5051261;28;20039;-85
2021/09/07 05:15:46;;;;;;;20.90;12.93;;;16.80;99.90;;;;;;5052651;28;20029;-85
2021/09/07 05:18:12;;;;;;;22.63;13.80;;;16.80;99.90;;;;;;5052703;28;20035;-83
2021/09/07 05:20:38;;;;;;;20.02;13.27;;;16.90;99.90;;;;;;5051780;28;20024;-84
2021/09/07 05:23:03;;;;;;;19.65;13.13;;;16.90;99.90;;;;;;5034728;28;20090;-85
2021/09/07 05:25:30;;;;;;;22.17;14.05;;;16.90;99.90;;;;;;5051279;28;20025;-85
2021/09/07 05:27:56;;;;;;;20.95;13.55;;;16.90;99.90;;;;;;5052436;28;20017;-85
2021/09/07 05:30:22;;;;;;;21.92;13.15;;;17.00;99.90;;;;;;5034259;28;20025;-84
2021/09/07 05:32:48;;;;;;;21.20;14.45;;;16.90;99.90;;;;;;5052029;28;20070;-84
2021/09/07 05:35:14;;;;;;;21.30;14.13;;;17.00;99.90;;;;;;5034418;28;20636;-84
2021/09/07 05:37:40;;;;;;;22.42;13.82;;;17.00;99.90;;;;;;5052258;28;20107;-85
2021/09/07 05:40:11;;;;;;;22.48;14.65;;;17.00;99.90;;;;;;5069968;22;20046;-92
2021/09/07 05:42:41;;;;;;;21.75;13.20;;;17.00;99.90;;;;;;5054670;28;20017;-91
2021/09/07 05:45:08;;;;;;;22.20;14.52;;;17.00;99.90;;;;;;5054519;28;20020;-91
2021/09/07 05:47:33;;;;;;;22.58;14.13;;;17.10;99.90;;;;;;5054583;28;20021;-91
2021/09/07 05:49:59;;;;;;;20.10;13.23;;;17.10;99.90;;;;;;5054553;28;20032;-91
2021/09/07 05:52:25;;;;;;;20.52;14.02;;;17.10;99.90;;;;;;5054529;28;20024;-91
2021/09/07 05:54:50;;;;;;;23.80;14.82;;;17.20;99.90;;;;;;5054330;28;20158;-92
2021/09/07 05:57:16;;;;;;;21.88;13.98;;;17.20;99.90;;;;;;5054553;28;20024;-91
2021/09/07 05:59:41;;;;;;;22.33;14.80;;;17.30;99.90;;;;;;5053763;28;20024;-90
2021/09/07 06:02:07;;;;;;;25.35;15.57;;;17.30;99.90;;;;;;5054416;28;20035;-90
2021/09/07 06:04:33;;;;;;;24.48;14.85;;;17.30;99.90;;;;;;5073117;28;20025;-90
2021/09/07 06:06:58;;;;;;;21.25;13.90;;;17.30;99.90;;;;;;5053807;28;20078;-89
2021/09/07 06:09:24;;;;;;;26.63;16.33;;;17.40;99.90;;;;;;5053274;28;20071;-90
2021/09/07 06:11:49;;;;;;;26.02;15.93;;;17.40;99.90;;;;;;5072041;28;20029;-89
2021/09/07 06:14:15;;;;;;;23.73;15.35;;;17.40;99.90;;;;;;5053953;28;20060;-90
2021/09/07 06:16:41;;;;;;;25.45;16.02;;;17.40;99.90;;;;;;5054141;28;20476;-91
2021/09/07 06:19:07;;;;;;;27.42;16.20;;;17.50;99.90;;;;;;5053882;28;20526;-87
2021/09/07 06:21:33;;;;;;;23.80;14.80;;;17.50;99.90;;;;;;5054060;28;20021;-87
2021/09/07 06:23:58;;;;;;;24.33;15.93;;;17.50;99.90;;;;;;5053953;28;20028;-87
2021/09/07 06:26:24;;;;;;;25.20;15.65;;;17.50;99.90;;;;;;5053920;28;20469;-87
2021/09/07 06:28:50;;;;;;;20.35;14.25;;;17.50;99.90;;;;;;5071623;28;20052;-87
2021/09/07 06:31:15;;;;;;;26.38;15.15;;;17.50;99.90;;;;;;5071587;28;20400;-87
2021/09/07 06:33:41;;;;;;;22.60;14.82;;;17.60;99.90;;;;;;5072005;28;20036;-87
2021/09/07 06:36:07;;;;;;;25.98;14.73;;;17.60;99.90;;;;;;5053929;28;20036;-87
2021/09/07 06:38:32;;;;;;;22.17;13.57;;;17.60;99.90;;;;;;5054057;28;20409;-87
2021/09/07 06:40:58;;;;;;;21.95;13.68;;;17.70;99.90;;;;;;5070980;28;20111;-87
2021/09/07 06:43:23;;;;;;;24.23;13.50;;;17.70;99.90;;;;;;5071734;28;20159;-87
2021/09/07 06:45:49;;;;;;;21.48;13.07;;;17.70;99.90;;;;;;5053960;28;20025;-87
2021/09/07 06:48:15;;;;;;;17.98;12.05;;;17.80;99.90;;;;;;5071669;28;20029;-88
2021/09/07 06:50:40;;;;;;;21.60;13.80;;;17.80;99.90;;;;;;5053221;28;20535;-87
2021/09/07 06:53:06;;;;;;;18.38;12.35;;;17.80;99.90;;;;;;5071653;28;20032;-88
2021/09/07 06:55:32;;;;;;;25.80;13.52;;;17.90;99.90;;;;;;5053881;28;20036;-87
2021/09/07 06:57:57;;;;;;;19.40;12.82;;;17.90;99.90;;;;;;5053792;28;20078;-87
2021/09/07 07:00:23;;;;;;;21.63;13.25;;;17.90;99.90;;;;;;5070602;28;20583;-87
2021/09/07 07:02:49;;;;;;;18.35;12.93;;;18.00;99.90;;;;;;5053867;28;20436;-87
2021/09/07 07:05:15;;;;;;;19.50;12.50;;;18.00;99.90;;;;;;5053690;28;20059;-87
2021/09/07 07:07:41;;;;;;;22.00;13.50;;;18.00;99.90;;;;;;5053526;28;20032;-87
2021/09/07 07:10:07;;;;;;;17.05;12.10;;;18.00;99.90;;;;;;5053131;28;20024;-87
2021/09/07 07:12:33;;;;;;;20.15;11.77;;;18.10;99.90;;;;;;5071293;28;20029;-87
2021/09/07 07:14:59;;;;;;;22.83;12.88;;;18.10;99.90;;;;;;5053660;28;20495;-87
2021/09/07 07:17:25;;;;;;;22.73;13.65;;;18.10;99.90;;;;;;5053410;28;20052;-87
2021/09/07 07:19:51;;;;;;;20.48;12.55;;;18.10;99.90;;;;;;5072641;28;20374;-88
2021/09/07 07:22:17;;;;;;;19.55;11.70;;;18.20;99.90;;;;;;5056954;28;20028;-88
2021/09/07 07:24:43;;;;;;;21.23;12.75;;;18.10;99.90;;;;;;5057143;28;20033;-88
2021/09/07 07:27:09;;;;;;;20.52;12.52;;;18.20;99.90;;;;;;5057094;28;20067;-88
2021/09/07 07:29:34;;;;;;;19.77;13.32;;;18.20;99.90;;;;;;5056295;28;20028;-88
2021/09/07 07:32:00;;;;;;;21.08;13.70;;;18.20;99.90;;;;;;5056987;28;20032;-88
2021/09/07 07:34:26;;;;;;;18.33;12.70;;;18.20;99.90;;;;;;5056944;28;20101;-88
2021/09/07 07:36:54;;;;;;;18.77;12.48;;;18.30;99.90;;;;;;5074933;28;20112;-88
2021/09/07 07:39:21;;;;;;;16.70;10.95;;;18.30;99.90;;;;;;5056117;28;20024;-88
2021/09/07 07:41:47;;;;;;;18.05;11.85;;;18.30;99.90;;;;;;5056814;28;20531;-88
2021/09/07 07:44:12;;;;;;;19.83;12.55;;;18.40;99.90;;;;;;5074673;28;20032;-88
2021/09/07 07:46:38;;;;;;;18.17;11.25;;;18.40;99.90;;;;;;5056662;28;20024;-88
2021/09/07 07:49:04;;;;;;;18.08;12.43;;;18.40;99.90;;;;;;5056014;28;20020;-88
2021/09/07 07:51:30;;;;;;;17.65;11.48;;;18.40;99.90;;;;;;5056545;28;20017;-88
2021/09/07 07:53:56;;;;;;;18.02;11.80;;;18.50;99.90;;;;;;5056589;28;20113;-88
2021/09/07 07:56:22;;;;;;;15.07;10.98;;;18.50;99.90;;;;;;5056634;28;20465;-88
2021/09/07 07:58:47;;;;;;;17.02;11.18;;;18.50;99.90;;;;;;5073999;28;20027;-88
2021/09/07 08:01:13;;;;;;;17.50;11.57;;;18.50;99.90;;;;;;5055942;28;20120;-87
2021/09/07 08:03:40;;;;;;;19.23;11.27;;;18.60;99.90;;;;;;5056476;28;20086;-88
2021/09/07 08:06:06;;;;;;;17.08;11.15;;;18.60;99.90;;;;;;5056540;28;20033;-88
2021/09/07 08:08:32;;;;;;;15.13;11.13;;;18.60;99.90;;;;;;5056677;28;20025;-88
2021/09/07 08:10:58;;;;;;;15.75;11.50;;;18.60;99.90;;;;;;5055586;28;20060;-88
2021/09/07 08:13:24;;;;;;;19.40;11.73;;;18.60;99.90;;;;;;5056394;28;20444;-88
2021/09/07 08:15:49;;;;;;;20.75;12.63;;;18.60;99.90;;;;;;5056125;28;20063;-88
2021/09/07 08:18:15;;;;;;;16.80;11.98;;;18.60;99.90;;;;;;5056040;28;20029;-88
2021/09/07 08:20:42;;;;;;;17.13;11.57;;;18.60;99.90;;;;;;5055319;28;20385;-88
2021/09/07 08:23:08;;;;;;;16.20;11.15;;;18.60;99.90;;;;;;5055940;28;20021;-88
2021/09/07 08:25:34;;;;;;;17.17;11.60;;;18.60;99.90;;;;;;5056082;28;20157;-88
2021/09/07 08:27:59;;;;;;;15.77;11.82;;;18.70;99.90;;;;;;5055785;28;20496;-88
2021/09/07 08:30:25;;;;;;;16.58;10.95;;;18.70;99.90;;;;;;5055132;28;20035;-88
2021/09/07 08:32:51;;;;;;;15.18;10.88;;;18.70;99.90;;;;;;5055704;28;20111;-88
2021/09/07 08:35:17;;;;;;;19.15;11.32;;;18.70;99.90;;;;;;5073753;28;20071;-88
2021/09/07 08:37:43;;;;;;;18.70;12.02;;;18.70;99.90;;;;;;5055699;28;20078;-88
2021/09/07 08:40:11;;;;;;;18.13;11.38;;;18.70;99.90;;;;;;5072805;28;20032;-88
2021/09/07 08:42:36;;;;;;;18.52;12.38;;;18.70;99.90;;;;;;5055501;28;20078;-87
2021/09/07 08:45:05;;;;;;;19.00;12.38;;;18.80;99.90;;;;;;5055478;28;20024;-88
2021/09/07 08:47:30;;;;;;;28.55;15.18;;;18.80;99.90;;;;;;5055680;28;20020;-88
2021/09/07 08:49:57;;;;;;;20.25;13.02;;;18.90;99.90;;;;;;5054915;28;20526;-88
2021/09/07 08:52:24;;;;;;;20.38;12.52;;;18.90;99.90;;;;;;5055466;28;20035;-88
2021/09/07 08:54:50;;;;;;;29.83;15.60;;;19.00;99.90;;;;;;5055432;28;20437;-88
2021/09/07 08:57:17;;;;;;;22.30;13.00;;;19.10;99.90;;;;;;5055219;28;20108;-88
2021/09/07 08:59:43;;;;;;;22.73;12.82;;;19.20;99.90;;;;;;5054687;28;20020;-88
2021/09/07 09:02:12;;;;;;;23.90;12.73;;;19.30;99.90;;;;;;5055708;28;20447;-88
2021/09/07 09:04:39;;;;;;;20.27;12.15;;;19.30;99.90;;;;;;5055201;28;20020;-88
2021/09/07 09:07:04;;;;;;;19.02;11.95;;;19.30;99.90;;;;;;5073630;28;20025;-88
2021/09/07 09:09:36;;;;;;;20.42;11.20;;;19.30;99.90;;;;;;5054421;28;20481;-88
2021/09/07 09:12:02;;;;;;;17.45;10.65;;;19.40;99.50;;;;;;5055051;28;20031;-88
2021/09/07 09:14:39;;;;;;;16.60;11.15;;;19.40;99.00;;;;;;5055327;28;20024;-88
2021/09/07 09:17:26;;;;;;;15.13;9.73;;;19.40;98.80;;;;;;5072946;28;20034;-88
2021/09/07 09:20:17;;;;;;;16.02;10.32;;;19.40;98.40;;;;;;5070834;28;20025;-88
2021/09/07 09:22:45;;;;;;;15.75;10.13;;;19.60;97.90;;;;;;5072870;28;20092;-88
2021/09/07 09:25:20;;;;;;;12.93;8.55;;;19.60;97.90;;;;;;5072776;28;20059;-88
2021/09/07 09:27:47;;;;;;;18.45;9.68;;;19.60;97.60;;;;;;5054824;28;20035;-88
2021/09/07 09:30:13;;;;;;;14.13;9.57;;;19.70;97.60;;;;;;5072140;28;20423;-88
2021/09/07 09:32:49;;;;;;;14.68;9.05;;;19.80;97.00;;;;;;5073655;28;20054;-88
2021/09/07 09:35:15;;;;;;;11.70;8.20;;;19.80;96.90;;;;;;5054677;28;20028;-88
2021/09/07 09:38:02;;;;;;;14.00;8.55;;;19.80;96.60;;;;;;5054637;28;20065;-88
2021/09/07 09:40:30;;;;;;;13.00;8.07;;;19.90;96.50;;;;;;5070474;28;20031;-88
2021/09/07 09:43:18;;;;;;;11.63;7.68;;;19.90;95.90;;;;;;5053794;28;20025;-88
2021/09/07 09:45:44;;;;;;;13.25;8.15;;;20.00;96.00;;;;;;5054625;28;20074;-88
2021/09/07 09:48:23;;;;;;;12.23;7.70;;;19.90;95.90;;;;;;5054603;28;20393;-88
2021/09/07 09:50:54;;;;;;;10.18;7.10;;;19.90;96.00;;;;;;5054964;28;20028;-88
2021/09/07 09:53:21;;;;;;;10.68;7.30;;;19.90;95.70;;;;;;5054339;28;20050;-88
2021/09/07 09:55:48;;;;;;;11.88;7.00;;;19.80;95.80;;;;;;5053962;28;20119;-88
2021/09/07 09:58:17;;;;;;;11.07;7.35;;;19.90;94.90;;;;;;5072268;28;20016;-88
2021/09/07 10:00:48;;;;;;;9.90;7.28;;;19.80;95.00;;;;;;5053776;28;20020;-88
2021/09/07 10:03:15;;;;;;;14.07;8.30;;;19.80;95.20;;;;;;5072189;28;20021;-88
2021/09/07 10:05:41;;;;;;;10.20;7.20;;;19.70;95.60;;;;;;5054043;28;20099;-88
2021/09/07 10:08:10;;;;;;;10.52;7.47;;;19.70;94.80;;;;;;5054105;28;20028;-88
2021/09/07 10:10:36;;;;;;;;;;;19.80;94.80;;;;;;5054121;28;20028;-88
2021/09/07 10:13:04;;;;;;;10.55;7.25;;;19.70;95.10;;;;;;5054390;28;19912;-88
2021/09/07 10:26:14;;;;;;;11.55;7.18;;;19.70;94.50;;;;;;5072249;28;20021;-88
2021/09/07 10:28:44;;;;;;;12.88;7.68;;;19.80;94.60;;;;;;5072162;28;20043;-88
2021/09/07 10:31:15;;;;;;;11.00;7.47;;;19.90;94.40;;;;;;5053175;28;20108;-88
2021/09/07 10:33:58;;;;;;;11.80;7.55;;;19.90;94.20;;;;;;5053960;28;20036;-88
2021/09/07 10:36:26;;;;;;;11.10;7.10;;;19.90;94.50;;;;;;5054059;28;20397;-88
2021/09/07 10:38:54;;;;;;;10.73;7.50;;;20.00;94.00;;;;;;5053626;28;20024;-88
2021/09/07 10:41:29;;;;;;;11.88;7.43;;;20.00;94.10;;;;;;5053607;28;20060;-88
2021/09/07 10:43:55;;;;;;;12.00;7.75;;;19.90;94.10;;;;;;5053993;28;20503;-88
2021/09/07 10:46:57;;;;;;;10.88;7.38;;;19.90;93.50;;;;;;5053871;28;20492;-88
2021/09/07 10:49:26;;;;;;;10.18;7.50;;;19.90;93.80;;;;;;5009309;28;20029;-88
2021/09/07 10:52:09;;;;;;;11.95;7.43;;;19.90;94.00;;;;;;5060372;28;20435;-88
2021/09/07 10:54:50;;;;;;;9.98;7.18;;;19.90;94.10;;;;;;5055415;28;20140;-88
2021/09/07 10:57:37;;;;;;;14.63;9.02;;;19.90;94.20;;;;;;5062557;28;20064;-88
2021/09/07 11:00:22;;;;;;;13.73;7.73;;;20.00;93.20;;;;;;5056951;28;20032;-88
2021/09/07 11:03:04;;;;;;;12.30;8.05;;;20.00;93.40;;;;;;5057561;28;20024;-88
2021/09/07 11:05:32;;;;;;;12.82;7.90;;;20.10;93.90;;;;;;5057993;28;20028;-87
2021/09/07 11:08:01;;;;;;;12.70;8.33;;;20.10;94.10;;;;;;5057431;28;20036;-88
2021/09/07 11:10:30;;;;;;;10.93;7.10;;;20.00;94.30;;;;;;5074662;28;20485;-89
2021/09/07 11:12:57;;;;;;;15.05;8.57;;;20.10;93.80;;;;;;5057764;28;20058;-88
2021/09/07 11:15:29;;;;;;;15.20;8.50;;;20.10;93.90;;;;;;5057624;28;20032;-88
2021/09/07 11:18:00;;;;;;;12.98;9.05;;;20.20;93.80;;;;;;5057580;28;20031;-88
2021/09/07 11:20:33;;;;;;;11.80;8.48;;;20.30;93.00;;;;;;5074538;28;20377;-88
2021/09/07 11:23:06;;;;;;;11.68;8.00;;;20.40;92.80;;;;;;5057095;28;20421;-88
2021/09/07 11:25:32;;;;;;;13.32;8.40;;;20.30;93.00;;;;;;5057388;28;20021;-88
2021/09/07 11:27:59;;;;;;;11.73;7.75;;;20.40;92.70;;;;;;5075074;28;20073;-88
2021/09/07 11:30:33;;;;;;;14.35;8.77;;;20.40;93.00;;;;;;5056809;28;20101;-88
2021/09/07 11:33:12;;;;;;;14.50;9.00;;;20.50;92.60;;;;;;5056912;28;20020;-88
2021/09/07 11:35:48;;;;;;;16.58;8.65;;;20.60;92.10;;;;;;5057130;28;20025;-88
2021/09/07 11:38:29;;;;;;;14.80;8.90;;;20.60;92.60;;;;;;5057081;28;20035;-88
2021/09/07 11:41:00;;;;;;;14.30;9.10;;;20.70;92.30;;;;;;5056792;28;20033;-90
2021/09/07 11:43:38;;;;;;;14.02;8.70;;;20.70;92.40;;;;;;5075088;28;20032;-90
2021/09/07 11:46:14;;;;;;;11.75;8.38;;;20.70;92.40;;;;;;5056934;28;20451;-90
2021/09/07 11:48:48;;;;;;;12.13;7.95;;;20.80;93.00;;;;;;5057255;28;20063;-90
2021/09/07 11:51:18;;;;;;;13.13;8.50;;;20.70;92.80;;;;;;5057016;28;20024;-89
2021/09/07 11:53:45;;;;;;;12.30;8.48;;;20.70;92.00;;;;;;5056982;28;20401;-90
2021/09/07 11:56:41;;;;;;;11.82;7.80;;;20.70;92.60;;;;;;5056749;28;20477;-90
2021/09/07 11:59:17;;;;;;;13.50;8.35;;;20.80;92.50;;;;;;5048459;28;20095;-90
2021/09/07 12:01:50;;;;;;;10.50;7.47;;;20.80;92.80;;;;;;5075115;28;20023;-90
2021/09/07 12:04:18;;;;;;;13.55;9.05;;;20.80;92.60;;;;;;5057141;28;20130;-89
2021/09/07 12:06:45;;;;;;;13.40;7.70;;;20.90;91.60;;;;;;5056402;28;20485;-89
2021/09/07 12:09:16;;;;;;;16.08;8.35;;;20.90;91.30;;;;;;5074715;28;20307;-89
2021/09/07 12:11:44;;;;;;;12.63;8.25;;;21.00;91.40;;;;;;5056926;28;20021;-89
2021/09/07 12:14:12;;;;;;;12.38;7.68;;;21.10;90.90;;;;;;5074717;28;20017;-90
2021/09/07 12:16:49;;;;;;;14.93;7.63;;;21.10;90.60;;;;;;5056946;28;20032;-90
2021/09/07 12:19:29;;;;;;;13.10;7.82;;;21.10;90.90;;;;;;5074788;28;20070;-90
2021/09/07 12:22:13;;;;;;;10.70;6.97;;;21.10;90.30;;;;;;5057626;28;20073;-90
2021/09/07 12:24:41;;;;;;;18.27;8.52;;;21.20;90.50;;;;;;5076494;28;20024;-90
2021/09/07 12:27:17;;;;;;;13.65;8.05;;;21.30;90.20;;;;;;5077843;28;20013;-89
2021/09/07 12:30:23;;;;;;;12.60;7.68;;;21.30;89.90;;;;;;5077160;28;20469;-89
2021/09/07 12:33:07;;;;;;;14.45;7.47;;;21.20;90.80;;;;;;5066536;28;20024;-90
2021/09/07 12:35:33;;;;;;;10.35;6.82;;;21.10;90.60;;;;;;5057140;28;20040;-89
2021/09/07 12:38:00;;;;;;;13.80;7.28;;;21.10;90.50;;;;;;5056463;28;20055;-90
2021/09/07 12:40:27;;;;;;;13.73;7.35;;;21.10;89.60;;;;;;5056632;28;20060;-90
2021/09/07 12:42:52;;;;;;;12.20;7.38;;;21.10;89.30;;;;;;5057136;28;20031;-89
2021/09/07 12:45:18;;;;;;;15.60;6.90;;;21.10;89.80;;;;;;5056612;28;20021;-89